sensor_id;sensor_type;location;lat;lon;timestamp;P1;durP1;ratioP1;P2;durP2;ratioP2
3847;SDS011;1939;48.720;9.166;2022-10-30T00:00:00;16.10;;;4.80;;
3847;SDS011;1939;48.720;9.166;2022-10-30T00:02:25;18.23;;;5.23;;
3847;SDS011;1939;48.720;9.166;2022-10-30T00:04:50;14.47;;;5.50;;
3847;SDS011;1939;48.720;9.166;2022-10-30T00:07:16;17.30;;;5.00;;
3847;SDS011;1939;48.720;9.166;2022-10-30T00:09:41;15.13;;;4.10;;
3847;SDS011;1939;48.720;9.166;2022-10-30T00:12:06;13.00;;;4.03;;
3847;SDS011;1939;48.720;9.166;2022-10-30T00:14:31;16.67;;;3.90;;
3847;SDS011;1939;48.720;9.166;2022-10-30T00:16:56;15.53;;;5.00;;
3847;SDS011;1939;48.720;9.166;2022-10-30T00:19:22;9.40;;;4.53;;
3847;SDS011;1939;48.720;9.166;2022-10-30T00:21:47;12.70;;;4.27;;
3847;SDS011;1939;48.720;9.166;2022-10-30T00:24:12;18.43;;;4.90;;
3847;SDS011;1939;48.720;9.166;2022-10-30T00:26:37;17.50;;;5.27;;
3847;SDS011;1939;48.720;9.166;2022-10-30T00:29:03;14.60;;;3.97;;
3847;SDS011;1939;48.720;9.166;2022-10-30T00:31:29;9.23;;;4.20;;
3847;SDS011;1939;48.720;9.166;2022-10-30T00:33:54;20.07;;;4.90;;
3847;SDS011;1939;48.720;9.166;2022-10-30T00:36:20;14.40;;;4.53;;
3847;SDS011;1939;48.720;9.166;2022-10-30T00:38:46;22.20;;;5.20;;
3847;SDS011;1939;48.720;9.166;2022-10-30T00:41:15;23.23;;;5.17;;
3847;SDS011;1939;48.720;9.166;2022-10-30T00:43:40;20.83;;;4.50;;
3847;SDS011;1939;48.720;9.166;2022-10-30T00:49:09;12.80;;;4.70;;
3847;SDS011;1939;48.720;9.166;2022-10-30T00:51:36;13.10;;;4.40;;
3847;SDS011;1939;48.720;9.166;2022-10-30T00:54:02;13.90;;;4.50;;
3847;SDS011;1939;48.720;9.166;2022-10-30T00:56:29;10.37;;;4.20;;
3847;SDS011;1939;48.720;9.166;2022-10-30T00:58:56;13.57;;;5.00;;
3847;SDS011;1939;48.720;9.166;2022-10-30T01:01:23;10.40;;;4.97;;
3847;SDS011;1939;48.720;9.166;2022-10-30T01:03:50;13.40;;;4.27;;
3847;SDS011;1939;48.720;9.166;2022-10-30T01:06:16;10.80;;;4.60;;
3847;SDS011;1939;48.720;9.166;2022-10-30T01:08:42;8.47;;;3.73;;
3847;SDS011;1939;48.720;9.166;2022-10-30T01:11:07;10.90;;;4.10;;
3847;SDS011;1939;48.720;9.166;2022-10-30T01:13:33;9.33;;;4.37;;
3847;SDS011;1939;48.720;9.166;2022-10-30T01:18:34;9.67;;;4.70;;
3847;SDS011;1939;48.720;9.166;2022-10-30T01:23:47;13.33;;;5.33;;
3847;SDS011;1939;48.720;9.166;2022-10-30T01:31:36;10.23;;;4.60;;
3847;SDS011;1939;48.720;9.166;2022-10-30T01:34:15;14.00;;;4.77;;
3847;SDS011;1939;48.720;9.166;2022-10-30T01:36:45;13.03;;;5.77;;
3847;SDS011;1939;48.720;9.166;2022-10-30T01:39:14;21.90;;;7.00;;
3847;SDS011;1939;48.720;9.166;2022-10-30T01:41:41;16.33;;;8.00;;
3847;SDS011;1939;48.720;9.166;2022-10-30T01:44:07;12.17;;;7.17;;
3847;SDS011;1939;48.720;9.166;2022-10-30T01:54:48;20.97;;;8.00;;
3847;SDS011;1939;48.720;9.166;2022-10-30T01:57:35;14.93;;;7.63;;
3847;SDS011;1939;48.720;9.166;2022-10-30T02:00:07;18.23;;;6.97;;
3847;SDS011;1939;48.720;9.166;2022-10-30T02:02:33;18.60;;;7.33;;
3847;SDS011;1939;48.720;9.166;2022-10-30T02:04:59;20.17;;;6.83;;
3847;SDS011;1939;48.720;9.166;2022-10-30T02:07:24;14.37;;;7.20;;
3847;SDS011;1939;48.720;9.166;2022-10-30T02:09:50;16.63;;;6.37;;
3847;SDS011;1939;48.720;9.166;2022-10-30T02:12:15;15.47;;;7.07;;
3847;SDS011;1939;48.720;9.166;2022-10-30T02:14:42;26.63;;;8.03;;
3847;SDS011;1939;48.720;9.166;2022-10-30T02:17:07;23.43;;;8.03;;
3847;SDS011;1939;48.720;9.166;2022-10-30T02:19:33;21.70;;;8.10;;
3847;SDS011;1939;48.720;9.166;2022-10-30T02:21:58;24.33;;;8.77;;
3847;SDS011;1939;48.720;9.166;2022-10-30T02:24:24;13.13;;;7.80;;
3847;SDS011;1939;48.720;9.166;2022-10-30T02:26:49;15.83;;;8.50;;
3847;SDS011;1939;48.720;9.166;2022-10-30T02:29:14;17.27;;;9.13;;
3847;SDS011;1939;48.720;9.166;2022-10-30T02:31:39;21.00;;;7.47;;
3847;SDS011;1939;48.720;9.166;2022-10-30T02:34:04;15.90;;;7.60;;
3847;SDS011;1939;48.720;9.166;2022-10-30T02:36:30;21.53;;;8.93;;
3847;SDS011;1939;48.720;9.166;2022-10-30T02:38:55;23.20;;;8.47;;
3847;SDS011;1939;48.720;9.166;2022-10-30T02:41:21;24.40;;;10.13;;
3847;SDS011;1939;48.720;9.166;2022-10-30T02:43:46;21.03;;;8.70;;
3847;SDS011;1939;48.720;9.166;2022-10-30T02:46:12;13.10;;;7.13;;
3847;SDS011;1939;48.720;9.166;2022-10-30T02:48:37;19.13;;;7.67;;
3847;SDS011;1939;48.720;9.166;2022-10-30T02:51:02;20.50;;;8.27;;
3847;SDS011;1939;48.720;9.166;2022-10-30T02:53:28;24.57;;;9.50;;
3847;SDS011;1939;48.720;9.166;2022-10-30T02:55:53;16.27;;;8.50;;
3847;SDS011;1939;48.720;9.166;2022-10-30T02:58:18;17.00;;;7.77;;
3847;SDS011;1939;48.720;9.166;2022-10-30T03:00:43;16.43;;;8.70;;
3847;SDS011;1939;48.720;9.166;2022-10-30T03:03:09;15.07;;;8.00;;
3847;SDS011;1939;48.720;9.166;2022-10-30T03:05:34;16.67;;;7.70;;
3847;SDS011;1939;48.720;9.166;2022-10-30T03:07:59;29.53;;;8.70;;
3847;SDS011;1939;48.720;9.166;2022-10-30T03:10:24;13.60;;;8.20;;
3847;SDS011;1939;48.720;9.166;2022-10-30T03:12:49;18.47;;;9.43;;
3847;SDS011;1939;48.720;9.166;2022-10-30T03:15:15;20.03;;;10.47;;
3847;SDS011;1939;48.720;9.166;2022-10-30T03:17:40;20.57;;;8.73;;
3847;SDS011;1939;48.720;9.166;2022-10-30T03:20:05;15.10;;;9.40;;
3847;SDS011;1939;48.720;9.166;2022-10-30T03:22:31;18.03;;;8.67;;
3847;SDS011;1939;48.720;9.166;2022-10-30T03:24:56;26.30;;;9.80;;
3847;SDS011;1939;48.720;9.166;2022-10-30T03:27:21;18.13;;;8.43;;
3847;SDS011;1939;48.720;9.166;2022-10-30T03:29:46;16.00;;;7.97;;
3847;SDS011;1939;48.720;9.166;2022-10-30T03:32:12;14.33;;;8.83;;
3847;SDS011;1939;48.720;9.166;2022-10-30T03:34:37;20.13;;;9.20;;
3847;SDS011;1939;48.720;9.166;2022-10-30T03:37:02;17.20;;;9.70;;
3847;SDS011;1939;48.720;9.166;2022-10-30T03:39:27;15.83;;;10.00;;
3847;SDS011;1939;48.720;9.166;2022-10-30T03:41:53;21.57;;;9.37;;
3847;SDS011;1939;48.720;9.166;2022-10-30T03:44:18;20.73;;;8.97;;
3847;SDS011;1939;48.720;9.166;2022-10-30T03:46:43;19.13;;;8.60;;
3847;SDS011;1939;48.720;9.166;2022-10-30T03:49:08;16.90;;;9.20;;
3847;SDS011;1939;48.720;9.166;2022-10-30T03:51:34;19.50;;;8.13;;
3847;SDS011;1939;48.720;9.166;2022-10-30T03:53:59;15.80;;;8.40;;
3847;SDS011;1939;48.720;9.166;2022-10-30T03:56:24;21.43;;;9.83;;
3847;SDS011;1939;48.720;9.166;2022-10-30T03:58:49;18.87;;;9.30;;
3847;SDS011;1939;48.720;9.166;2022-10-30T04:01:14;23.90;;;8.70;;
3847;SDS011;1939;48.720;9.166;2022-10-30T04:03:40;14.87;;;9.20;;
3847;SDS011;1939;48.720;9.166;2022-10-30T04:06:05;25.73;;;8.90;;
3847;SDS011;1939;48.720;9.166;2022-10-30T04:08:31;23.80;;;10.53;;
3847;SDS011;1939;48.720;9.166;2022-10-30T04:10:57;17.63;;;9.57;;
3847;SDS011;1939;48.720;9.166;2022-10-30T04:13:22;23.47;;;8.83;;
3847;SDS011;1939;48.720;9.166;2022-10-30T04:15:47;19.70;;;8.30;;
3847;SDS011;1939;48.720;9.166;2022-10-30T04:18:13;18.17;;;8.73;;
3847;SDS011;1939;48.720;9.166;2022-10-30T04:20:40;23.83;;;8.30;;
3847;SDS011;1939;48.720;9.166;2022-10-30T04:23:07;19.43;;;8.03;;
3847;SDS011;1939;48.720;9.166;2022-10-30T04:25:32;13.83;;;7.60;;
3847;SDS011;1939;48.720;9.166;2022-10-30T04:27:58;17.80;;;8.47;;
3847;SDS011;1939;48.720;9.166;2022-10-30T04:30:23;21.93;;;9.93;;
3847;SDS011;1939;48.720;9.166;2022-10-30T04:32:52;20.90;;;8.70;;
3847;SDS011;1939;48.720;9.166;2022-10-30T04:35:18;20.87;;;9.37;;
3847;SDS011;1939;48.720;9.166;2022-10-30T04:37:53;13.80;;;8.43;;
3847;SDS011;1939;48.720;9.166;2022-10-30T04:43:01;17.90;;;8.70;;
3847;SDS011;1939;48.720;9.166;2022-10-30T04:45:27;15.90;;;9.47;;
3847;SDS011;1939;48.720;9.166;2022-10-30T04:47:52;21.37;;;9.87;;
3847;SDS011;1939;48.720;9.166;2022-10-30T04:50:17;30.47;;;8.70;;
3847;SDS011;1939;48.720;9.166;2022-10-30T04:52:43;23.30;;;9.23;;
3847;SDS011;1939;48.720;9.166;2022-10-30T04:55:09;17.80;;;9.27;;
3847;SDS011;1939;48.720;9.166;2022-10-30T04:57:34;20.67;;;9.87;;
3847;SDS011;1939;48.720;9.166;2022-10-30T05:00:01;23.27;;;10.30;;
3847;SDS011;1939;48.720;9.166;2022-10-30T05:02:26;31.40;;;9.00;;
3847;SDS011;1939;48.720;9.166;2022-10-30T05:04:51;17.30;;;8.63;;
3847;SDS011;1939;48.720;9.166;2022-10-30T05:07:16;20.03;;;10.60;;
3847;SDS011;1939;48.720;9.166;2022-10-30T05:09:42;24.40;;;9.33;;
3847;SDS011;1939;48.720;9.166;2022-10-30T05:12:08;18.83;;;7.90;;
3847;SDS011;1939;48.720;9.166;2022-10-30T05:14:33;14.37;;;8.53;;
3847;SDS011;1939;48.720;9.166;2022-10-30T05:16:59;18.53;;;8.93;;
3847;SDS011;1939;48.720;9.166;2022-10-30T05:19:24;17.13;;;9.33;;
3847;SDS011;1939;48.720;9.166;2022-10-30T05:21:49;19.67;;;8.57;;
3847;SDS011;1939;48.720;9.166;2022-10-30T05:24:14;26.97;;;8.60;;
3847;SDS011;1939;48.720;9.166;2022-10-30T05:26:40;14.43;;;7.73;;
3847;SDS011;1939;48.720;9.166;2022-10-30T05:29:05;18.10;;;8.13;;
3847;SDS011;1939;48.720;9.166;2022-10-30T05:31:30;20.10;;;9.10;;
3847;SDS011;1939;48.720;9.166;2022-10-30T05:33:55;17.33;;;9.40;;
3847;SDS011;1939;48.720;9.166;2022-10-30T05:36:21;14.90;;;8.53;;
3847;SDS011;1939;48.720;9.166;2022-10-30T05:38:46;12.37;;;8.70;;
3847;SDS011;1939;48.720;9.166;2022-10-30T05:41:11;22.00;;;8.17;;
3847;SDS011;1939;48.720;9.166;2022-10-30T05:43:36;14.20;;;7.40;;
3847;SDS011;1939;48.720;9.166;2022-10-30T05:46:01;16.57;;;7.77;;
3847;SDS011;1939;48.720;9.166;2022-10-30T05:48:27;15.60;;;7.63;;
3847;SDS011;1939;48.720;9.166;2022-10-30T05:50:53;16.60;;;8.47;;
3847;SDS011;1939;48.720;9.166;2022-10-30T05:53:19;16.90;;;7.87;;
3847;SDS011;1939;48.720;9.166;2022-10-30T05:55:44;21.10;;;9.03;;
3847;SDS011;1939;48.720;9.166;2022-10-30T05:58:09;19.70;;;8.70;;
3847;SDS011;1939;48.720;9.166;2022-10-30T06:00:34;20.70;;;10.13;;
3847;SDS011;1939;48.720;9.166;2022-10-30T06:05:25;16.50;;;7.70;;
3847;SDS011;1939;48.720;9.166;2022-10-30T06:07:53;14.67;;;8.27;;
3847;SDS011;1939;48.720;9.166;2022-10-30T06:10:18;16.47;;;8.70;;
3847;SDS011;1939;48.720;9.166;2022-10-30T06:12:50;18.53;;;7.73;;
3847;SDS011;1939;48.720;9.166;2022-10-30T06:15:15;18.53;;;7.87;;
3847;SDS011;1939;48.720;9.166;2022-10-30T06:17:41;19.80;;;8.47;;
3847;SDS011;1939;48.720;9.166;2022-10-30T06:20:06;15.60;;;7.63;;
3847;SDS011;1939;48.720;9.166;2022-10-30T06:22:31;18.70;;;7.90;;
3847;SDS011;1939;48.720;9.166;2022-10-30T06:24:56;24.23;;;10.57;;
3847;SDS011;1939;48.720;9.166;2022-10-30T06:27:22;17.20;;;9.50;;
3847;SDS011;1939;48.720;9.166;2022-10-30T06:29:47;22.20;;;8.67;;
3847;SDS011;1939;48.720;9.166;2022-10-30T06:32:13;15.00;;;7.77;;
3847;SDS011;1939;48.720;9.166;2022-10-30T06:34:38;17.70;;;8.70;;
3847;SDS011;1939;48.720;9.166;2022-10-30T06:37:03;14.93;;;9.30;;
3847;SDS011;1939;48.720;9.166;2022-10-30T06:39:28;15.00;;;8.30;;
3847;SDS011;1939;48.720;9.166;2022-10-30T06:41:53;19.60;;;8.50;;
3847;SDS011;1939;48.720;9.166;2022-10-30T06:44:19;16.67;;;8.50;;
3847;SDS011;1939;48.720;9.166;2022-10-30T06:46:44;21.80;;;9.23;;
3847;SDS011;1939;48.720;9.166;2022-10-30T06:49:09;23.23;;;9.10;;
3847;SDS011;1939;48.720;9.166;2022-10-30T06:51:34;17.70;;;9.20;;
3847;SDS011;1939;48.720;9.166;2022-10-30T06:53:59;17.87;;;7.60;;
3847;SDS011;1939;48.720;9.166;2022-10-30T06:56:25;14.37;;;7.60;;
3847;SDS011;1939;48.720;9.166;2022-10-30T06:58:50;22.80;;;8.63;;
3847;SDS011;1939;48.720;9.166;2022-10-30T07:01:15;18.73;;;7.17;;
3847;SDS011;1939;48.720;9.166;2022-10-30T07:03:40;20.90;;;7.23;;
3847;SDS011;1939;48.720;9.166;2022-10-30T07:06:05;12.53;;;7.10;;
3847;SDS011;1939;48.720;9.166;2022-10-30T07:08:31;19.93;;;8.53;;
3847;SDS011;1939;48.720;9.166;2022-10-30T07:10:56;13.80;;;6.33;;
3847;SDS011;1939;48.720;9.166;2022-10-30T07:13:22;14.07;;;6.40;;
3847;SDS011;1939;48.720;9.166;2022-10-30T07:15:47;13.13;;;6.17;;
3847;SDS011;1939;48.720;9.166;2022-10-30T07:18:13;10.83;;;6.50;;
3847;SDS011;1939;48.720;9.166;2022-10-30T07:20:38;14.87;;;7.07;;
3847;SDS011;1939;48.720;9.166;2022-10-30T07:23:03;13.30;;;7.33;;
3847;SDS011;1939;48.720;9.166;2022-10-30T07:25:28;13.43;;;7.60;;
3847;SDS011;1939;48.720;9.166;2022-10-30T07:27:54;16.60;;;7.20;;
3847;SDS011;1939;48.720;9.166;2022-10-30T07:30:21;17.63;;;8.47;;
3847;SDS011;1939;48.720;9.166;2022-10-30T07:32:54;16.73;;;8.23;;
3847;SDS011;1939;48.720;9.166;2022-10-30T07:35:20;25.07;;;9.00;;
3847;SDS011;1939;48.720;9.166;2022-10-30T07:37:45;21.37;;;7.47;;
3847;SDS011;1939;48.720;9.166;2022-10-30T07:40:10;10.33;;;7.70;;
3847;SDS011;1939;48.720;9.166;2022-10-30T07:42:35;12.93;;;7.30;;
3847;SDS011;1939;48.720;9.166;2022-10-30T07:45:01;13.73;;;7.17;;
3847;SDS011;1939;48.720;9.166;2022-10-30T07:47:26;16.83;;;8.10;;
3847;SDS011;1939;48.720;9.166;2022-10-30T07:49:51;18.23;;;8.17;;
3847;SDS011;1939;48.720;9.166;2022-10-30T07:52:16;9.90;;;6.63;;
3847;SDS011;1939;48.720;9.166;2022-10-30T07:54:41;14.80;;;6.73;;
3847;SDS011;1939;48.720;9.166;2022-10-30T07:57:06;19.80;;;8.07;;
3847;SDS011;1939;48.720;9.166;2022-10-30T07:59:32;14.00;;;6.67;;
3847;SDS011;1939;48.720;9.166;2022-10-30T08:01:57;14.37;;;6.60;;
3847;SDS011;1939;48.720;9.166;2022-10-30T08:04:24;16.10;;;6.93;;
3847;SDS011;1939;48.720;9.166;2022-10-30T08:06:49;11.97;;;6.77;;
3847;SDS011;1939;48.720;9.166;2022-10-30T08:09:15;14.13;;;6.33;;
3847;SDS011;1939;48.720;9.166;2022-10-30T08:11:40;15.20;;;5.90;;
3847;SDS011;1939;48.720;9.166;2022-10-30T08:14:05;11.07;;;6.60;;
3847;SDS011;1939;48.720;9.166;2022-10-30T08:16:30;19.87;;;7.37;;
3847;SDS011;1939;48.720;9.166;2022-10-30T08:18:56;12.80;;;6.50;;
3847;SDS011;1939;48.720;9.166;2022-10-30T08:21:21;18.60;;;7.00;;
3847;SDS011;1939;48.720;9.166;2022-10-30T08:23:46;16.57;;;7.30;;
3847;SDS011;1939;48.720;9.166;2022-10-30T08:26:11;14.20;;;6.80;;
3847;SDS011;1939;48.720;9.166;2022-10-30T08:28:37;9.57;;;5.97;;
3847;SDS011;1939;48.720;9.166;2022-10-30T08:31:02;16.70;;;6.93;;
3847;SDS011;1939;48.720;9.166;2022-10-30T08:33:28;9.00;;;6.20;;
3847;SDS011;1939;48.720;9.166;2022-10-30T08:35:54;17.57;;;7.07;;
3847;SDS011;1939;48.720;9.166;2022-10-30T08:38:22;8.67;;;5.80;;
3847;SDS011;1939;48.720;9.166;2022-10-30T08:40:48;16.20;;;5.70;;
3847;SDS011;1939;48.720;9.166;2022-10-30T08:43:13;16.00;;;6.30;;
3847;SDS011;1939;48.720;9.166;2022-10-30T08:45:39;10.90;;;5.90;;
3847;SDS011;1939;48.720;9.166;2022-10-30T08:48:04;26.43;;;7.27;;
3847;SDS011;1939;48.720;9.166;2022-10-30T08:50:30;9.17;;;5.60;;
3847;SDS011;1939;48.720;9.166;2022-10-30T08:52:58;9.50;;;5.50;;
3847;SDS011;1939;48.720;9.166;2022-10-30T08:55:24;13.00;;;6.90;;
3847;SDS011;1939;48.720;9.166;2022-10-30T08:57:49;11.33;;;5.80;;
3847;SDS011;1939;48.720;9.166;2022-10-30T09:00:14;14.53;;;6.67;;
3847;SDS011;1939;48.720;9.166;2022-10-30T09:02:39;10.83;;;5.67;;
3847;SDS011;1939;48.720;9.166;2022-10-30T09:05:05;11.87;;;5.90;;
3847;SDS011;1939;48.720;9.166;2022-10-30T09:07:31;16.50;;;5.90;;
3847;SDS011;1939;48.720;9.166;2022-10-30T09:09:57;10.73;;;6.37;;
3847;SDS011;1939;48.720;9.166;2022-10-30T09:12:22;11.40;;;6.10;;
3847;SDS011;1939;48.720;9.166;2022-10-30T09:14:47;11.57;;;6.13;;
3847;SDS011;1939;48.720;9.166;2022-10-30T09:17:12;8.67;;;6.10;;
3847;SDS011;1939;48.720;9.166;2022-10-30T09:19:37;9.03;;;5.77;;
3847;SDS011;1939;48.720;9.166;2022-10-30T09:22:03;10.17;;;5.20;;
3847;SDS011;1939;48.720;9.166;2022-10-30T09:24:28;10.13;;;4.80;;
3847;SDS011;1939;48.720;9.166;2022-10-30T09:26:54;12.27;;;4.90;;
3847;SDS011;1939;48.720;9.166;2022-10-30T09:29:19;11.80;;;5.73;;
3847;SDS011;1939;48.720;9.166;2022-10-30T09:31:44;13.10;;;6.00;;
3847;SDS011;1939;48.720;9.166;2022-10-30T09:34:09;13.03;;;6.53;;
3847;SDS011;1939;48.720;9.166;2022-10-30T09:36:35;10.60;;;5.77;;
3847;SDS011;1939;48.720;9.166;2022-10-30T09:39:00;12.67;;;5.80;;
3847;SDS011;1939;48.720;9.166;2022-10-30T09:41:32;17.13;;;5.30;;
3847;SDS011;1939;48.720;9.166;2022-10-30T09:44:07;13.93;;;5.70;;
3847;SDS011;1939;48.720;9.166;2022-10-30T09:56:33;11.37;;;6.17;;
3847;SDS011;1939;48.720;9.166;2022-10-30T09:59:20;13.03;;;6.27;;
3847;SDS011;1939;48.720;9.166;2022-10-30T10:01:49;10.00;;;5.77;;
3847;SDS011;1939;48.720;9.166;2022-10-30T10:05:18;12.97;;;5.27;;
3847;SDS011;1939;48.720;9.166;2022-10-30T10:07:15;14.00;;;5.40;;
3847;SDS011;1939;48.720;9.166;2022-10-30T10:09:41;14.60;;;5.67;;
3847;SDS011;1939;48.720;9.166;2022-10-30T10:12:08;7.80;;;4.50;;
3847;SDS011;1939;48.720;9.166;2022-10-30T10:14:37;31.60;;;5.53;;
3847;SDS011;1939;48.720;9.166;2022-10-30T10:17:04;12.70;;;4.40;;
3847;SDS011;1939;48.720;9.166;2022-10-30T10:22:07;12.97;;;4.57;;
3847;SDS011;1939;48.720;9.166;2022-10-30T10:24:38;9.00;;;4.33;;
3847;SDS011;1939;48.720;9.166;2022-10-30T10:29:53;14.00;;;4.90;;
3847;SDS011;1939;48.720;9.166;2022-10-30T10:32:41;13.07;;;5.20;;
3847;SDS011;1939;48.720;9.166;2022-10-30T10:42:46;16.33;;;5.33;;
3847;SDS011;1939;48.720;9.166;2022-10-30T10:45:19;8.27;;;4.60;;
3847;SDS011;1939;48.720;9.166;2022-10-30T10:50:18;8.30;;;4.63;;
3847;SDS011;1939;48.720;9.166;2022-10-30T10:52:46;8.50;;;5.77;;
3847;SDS011;1939;48.720;9.166;2022-10-30T10:55:15;14.23;;;3.97;;
3847;SDS011;1939;48.720;9.166;2022-10-30T10:57:40;9.77;;;4.47;;
3847;SDS011;1939;48.720;9.166;2022-10-30T11:00:07;9.37;;;5.10;;
3847;SDS011;1939;48.720;9.166;2022-10-30T11:02:39;12.53;;;5.30;;
3847;SDS011;1939;48.720;9.166;2022-10-30T11:05:51;7.10;;;4.30;;
3847;SDS011;1939;48.720;9.166;2022-10-30T11:07:51;12.87;;;4.83;;
3847;SDS011;1939;48.720;9.166;2022-10-30T11:10:18;11.63;;;5.20;;
3847;SDS011;1939;48.720;9.166;2022-10-30T11:12:44;10.40;;;4.07;;
3847;SDS011;1939;48.720;9.166;2022-10-30T11:18:03;9.27;;;4.57;;
3847;SDS011;1939;48.720;9.166;2022-10-30T11:23:00;10.20;;;3.90;;
3847;SDS011;1939;48.720;9.166;2022-10-30T11:25:25;7.67;;;4.40;;
3847;SDS011;1939;48.720;9.166;2022-10-30T11:27:58;13.43;;;4.77;;
3847;SDS011;1939;48.720;9.166;2022-10-30T11:30:24;11.50;;;4.30;;
3847;SDS011;1939;48.720;9.166;2022-10-30T11:32:52;6.47;;;4.00;;
3847;SDS011;1939;48.720;9.166;2022-10-30T11:35:18;8.10;;;3.63;;
3847;SDS011;1939;48.720;9.166;2022-10-30T11:37:44;10.00;;;3.93;;
3847;SDS011;1939;48.720;9.166;2022-10-30T11:42:35;10.60;;;5.10;;
3847;SDS011;1939;48.720;9.166;2022-10-30T11:45:01;11.45;;;4.50;;
3847;SDS011;1939;48.720;9.166;2022-10-30T11:47:31;15.13;;;4.20;;
3847;SDS011;1939;48.720;9.166;2022-10-30T11:49:57;9.73;;;4.00;;
3847;SDS011;1939;48.720;9.166;2022-10-30T11:52:23;8.23;;;4.00;;
3847;SDS011;1939;48.720;9.166;2022-10-30T11:54:56;13.67;;;4.60;;
3847;SDS011;1939;48.720;9.166;2022-10-30T11:57:32;10.80;;;4.07;;
3847;SDS011;1939;48.720;9.166;2022-10-30T11:59:58;12.35;;;4.28;;
3847;SDS011;1939;48.720;9.166;2022-10-30T12:02:25;9.88;;;4.28;;
3847;SDS011;1939;48.720;9.166;2022-10-30T12:04:51;9.10;;;4.23;;
3847;SDS011;1939;48.720;9.166;2022-10-30T12:07:23;8.03;;;4.43;;
3847;SDS011;1939;48.720;9.166;2022-10-30T12:09:50;14.33;;;4.60;;
3847;SDS011;1939;48.720;9.166;2022-10-30T12:12:28;16.63;;;4.50;;
3847;SDS011;1939;48.720;9.166;2022-10-30T12:15:07;8.10;;;4.30;;
3847;SDS011;1939;48.720;9.166;2022-10-30T12:17:32;10.43;;;4.30;;
3847;SDS011;1939;48.720;9.166;2022-10-30T12:19:57;11.07;;;4.47;;
3847;SDS011;1939;48.720;9.166;2022-10-30T12:22:24;8.03;;;3.97;;
3847;SDS011;1939;48.720;9.166;2022-10-30T12:24:51;10.80;;;3.97;;
3847;SDS011;1939;48.720;9.166;2022-10-30T12:27:16;12.03;;;4.30;;
3847;SDS011;1939;48.720;9.166;2022-10-30T12:32:18;8.03;;;4.30;;
3847;SDS011;1939;48.720;9.166;2022-10-30T12:37:16;11.13;;;4.03;;
3847;SDS011;1939;48.720;9.166;2022-10-30T12:42:10;15.47;;;4.90;;
3847;SDS011;1939;48.720;9.166;2022-10-30T12:44:42;17.50;;;3.87;;
3847;SDS011;1939;48.720;9.166;2022-10-30T12:47:14;15.40;;;3.90;;
3847;SDS011;1939;48.720;9.166;2022-10-30T12:49:43;14.20;;;4.50;;
3847;SDS011;1939;48.720;9.166;2022-10-30T12:52:16;13.10;;;4.57;;
3847;SDS011;1939;48.720;9.166;2022-10-30T12:54:46;14.03;;;4.60;;
3847;SDS011;1939;48.720;9.166;2022-10-30T12:59:45;11.00;;;3.93;;
3847;SDS011;1939;48.720;9.166;2022-10-30T13:02:17;8.70;;;3.60;;
3847;SDS011;1939;48.720;9.166;2022-10-30T13:04:46;5.30;;;3.73;;
3847;SDS011;1939;48.720;9.166;2022-10-30T13:07:33;10.03;;;4.30;;
3847;SDS011;1939;48.720;9.166;2022-10-30T13:10:17;7.90;;;3.50;;
3847;SDS011;1939;48.720;9.166;2022-10-30T13:12:43;10.77;;;4.90;;
3847;SDS011;1939;48.720;9.166;2022-10-30T13:15:53;11.43;;;4.38;;
3847;SDS011;1939;48.720;9.166;2022-10-30T13:17:59;8.87;;;3.07;;
3847;SDS011;1939;48.720;9.166;2022-10-30T13:20:30;11.00;;;4.23;;
3847;SDS011;1939;48.720;9.166;2022-10-30T13:23:00;17.53;;;4.13;;
3847;SDS011;1939;48.720;9.166;2022-10-30T13:28:00;10.50;;;3.80;;
3847;SDS011;1939;48.720;9.166;2022-10-30T13:30:30;9.13;;;4.20;;
3847;SDS011;1939;48.720;9.166;2022-10-30T13:33:06;11.23;;;3.50;;
3847;SDS011;1939;48.720;9.166;2022-10-30T13:38:06;13.27;;;4.60;;
3847;SDS011;1939;48.720;9.166;2022-10-30T13:40:49;9.87;;;4.20;;
3847;SDS011;1939;48.720;9.166;2022-10-30T13:43:24;9.97;;;4.37;;
3847;SDS011;1939;48.720;9.166;2022-10-30T13:48:39;13.23;;;4.77;;
3847;SDS011;1939;48.720;9.166;2022-10-30T13:53:35;8.23;;;3.90;;
3847;SDS011;1939;48.720;9.166;2022-10-30T13:56:01;17.03;;;4.10;;
3847;SDS011;1939;48.720;9.166;2022-10-30T13:58:40;28.43;;;4.50;;
3847;SDS011;1939;48.720;9.166;2022-10-30T14:01:21;10.30;;;4.93;;
3847;SDS011;1939;48.720;9.166;2022-10-30T14:04:00;12.23;;;5.17;;
3847;SDS011;1939;48.720;9.166;2022-10-30T14:11:43;8.83;;;4.33;;
3847;SDS011;1939;48.720;9.166;2022-10-30T14:16:43;9.70;;;4.07;;
3847;SDS011;1939;48.720;9.166;2022-10-30T14:19:09;9.43;;;5.60;;
3847;SDS011;1939;48.720;9.166;2022-10-30T14:21:39;5.83;;;4.20;;
3847;SDS011;1939;48.720;9.166;2022-10-30T14:24:14;8.37;;;4.40;;
3847;SDS011;1939;48.720;9.166;2022-10-30T14:27:26;14.20;;;4.90;;
3847;SDS011;1939;48.720;9.166;2022-10-30T14:31:58;12.63;;;5.10;;
3847;SDS011;1939;48.720;9.166;2022-10-30T14:35:26;8.60;;;4.40;;
3847;SDS011;1939;48.720;9.166;2022-10-30T14:39:47;11.57;;;5.43;;
3847;SDS011;1939;48.720;9.166;2022-10-30T14:42:22;14.00;;;4.90;;
3847;SDS011;1939;48.720;9.166;2022-10-30T14:49:56;8.70;;;4.90;;
3847;SDS011;1939;48.720;9.166;2022-10-30T14:52:29;15.00;;;5.23;;
3847;SDS011;1939;48.720;9.166;2022-10-30T14:57:43;19.23;;;4.87;;
3847;SDS011;1939;48.720;9.166;2022-10-30T15:03:31;13.30;;;5.20;;
3847;SDS011;1939;48.720;9.166;2022-10-30T15:05:53;8.00;;;4.50;;
3847;SDS011;1939;48.720;9.166;2022-10-30T15:08:27;9.30;;;5.20;;
3847;SDS011;1939;48.720;9.166;2022-10-30T15:11:09;9.37;;;5.13;;
3847;SDS011;1939;48.720;9.166;2022-10-30T15:13:37;12.40;;;5.50;;
3847;SDS011;1939;48.720;9.166;2022-10-30T15:16:12;8.20;;;4.53;;
3847;SDS011;1939;48.720;9.166;2022-10-30T15:18:38;18.57;;;6.90;;
3847;SDS011;1939;48.720;9.166;2022-10-30T15:21:04;17.23;;;7.23;;
3847;SDS011;1939;48.720;9.166;2022-10-30T15:23:31;13.90;;;5.57;;
3847;SDS011;1939;48.720;9.166;2022-10-30T15:25:58;8.70;;;5.70;;
3847;SDS011;1939;48.720;9.166;2022-10-30T15:28:25;18.20;;;5.03;;
3847;SDS011;1939;48.720;9.166;2022-10-30T15:30:58;15.40;;;4.40;;
3847;SDS011;1939;48.720;9.166;2022-10-30T15:33:24;16.97;;;5.00;;
3847;SDS011;1939;48.720;9.166;2022-10-30T15:35:49;10.03;;;5.60;;
3847;SDS011;1939;48.720;9.166;2022-10-30T15:38:14;10.43;;;5.90;;
3847;SDS011;1939;48.720;9.166;2022-10-30T15:40:40;11.50;;;5.03;;
3847;SDS011;1939;48.720;9.166;2022-10-30T15:43:06;12.07;;;5.30;;
3847;SDS011;1939;48.720;9.166;2022-10-30T15:45:35;12.93;;;4.93;;
3847;SDS011;1939;48.720;9.166;2022-10-30T15:48:04;12.00;;;5.67;;
3847;SDS011;1939;48.720;9.166;2022-10-30T15:50:31;8.50;;;4.70;;
3847;SDS011;1939;48.720;9.166;2022-10-30T15:52:57;10.80;;;5.17;;
3847;SDS011;1939;48.720;9.166;2022-10-30T15:55:27;10.40;;;4.50;;
3847;SDS011;1939;48.720;9.166;2022-10-30T15:57:53;11.47;;;5.67;;
3847;SDS011;1939;48.720;9.166;2022-10-30T16:00:29;14.47;;;4.80;;
3847;SDS011;1939;48.720;9.166;2022-10-30T16:05:50;10.50;;;4.70;;
3847;SDS011;1939;48.720;9.166;2022-10-30T16:08:20;13.47;;;5.40;;
3847;SDS011;1939;48.720;9.166;2022-10-30T16:10:45;14.97;;;5.27;;
3847;SDS011;1939;48.720;9.166;2022-10-30T16:13:18;16.23;;;5.50;;
3847;SDS011;1939;48.720;9.166;2022-10-30T16:15:43;20.23;;;5.07;;
3847;SDS011;1939;48.720;9.166;2022-10-30T16:18:16;14.87;;;4.87;;
3847;SDS011;1939;48.720;9.166;2022-10-30T16:20:43;12.40;;;5.57;;
3847;SDS011;1939;48.720;9.166;2022-10-30T16:23:08;11.30;;;5.10;;
3847;SDS011;1939;48.720;9.166;2022-10-30T16:25:34;15.80;;;6.13;;
3847;SDS011;1939;48.720;9.166;2022-10-30T16:28:02;6.83;;;4.50;;
3847;SDS011;1939;48.720;9.166;2022-10-30T16:30:27;12.10;;;5.00;;
3847;SDS011;1939;48.720;9.166;2022-10-30T16:32:55;14.50;;;5.43;;
3847;SDS011;1939;48.720;9.166;2022-10-30T16:35:22;13.80;;;5.90;;
3847;SDS011;1939;48.720;9.166;2022-10-30T16:37:48;13.50;;;6.10;;
3847;SDS011;1939;48.720;9.166;2022-10-30T16:40:16;11.53;;;5.27;;
3847;SDS011;1939;48.720;9.166;2022-10-30T16:42:49;9.30;;;5.43;;
3847;SDS011;1939;48.720;9.166;2022-10-30T16:47:42;16.00;;;6.00;;
3847;SDS011;1939;48.720;9.166;2022-10-30T16:50:09;15.23;;;6.70;;
3847;SDS011;1939;48.720;9.166;2022-10-30T16:52:36;12.40;;;6.30;;